Time;durP1;ratioP1;P1;durP2;ratioP2;P2;SDS_P1;SDS_P2;PMS_P1;PMS_P2;Temp;Humidity;BMP_temperature;BMP_pressure;BME280_temperature;BME280_humidity;BME280_pressure;Samples;Min_cycle;Max_cycle;Signal;HPM_P1;HPM_P2
2022/12/13 00:00:40;;;;;;;9.80;4.73;;;-9.30;54.70;;;;;;4969873;28;46417;-62
2022/12/13 00:03:06;;;;;;;8.67;5.53;;;-9.30;55.50;;;;;;4970712;28;46312;-60
2022/12/13 00:05:32;;;;;;;12.38;6.18;;;-9.10;55.40;;;;;;4969367;28;46369;-60
2022/12/13 00:07:59;;;;;;;15.80;7.70;;;-8.90;55.30;;;;;;4970211;28;46935;-60
2022/12/13 00:10:24;;;;;;;17.52;7.35;;;-8.50;54.40;;;;;;4968286;28;46470;-62
2022/12/13 00:12:50;;;;;;;12.63;6.13;;;-8.40;54.30;;;;;;4972973;28;46622;-61
2022/12/13 00:15:16;;;;;;;13.07;5.70;;;-8.40;55.20;;;;;;4970385;28;46618;-61
2022/12/13 00:17:41;;;;;;;14.73;7.10;;;-8.30;55.20;;;;;;4970484;28;46434;-62
2022/12/13 00:20:07;;;;;;;16.57;7.00;;;-8.10;54.40;;;;;;4968519;28;46473;-61
2022/12/13 00:22:33;;;;;;;14.13;6.22;;;-8.10;54.30;;;;;;4970096;28;46627;-62
2022/12/13 00:24:59;;;;;;;18.60;7.13;;;-8.00;55.50;;;;;;4971096;28;46392;-61
2022/12/13 00:27:24;;;;;;;17.43;7.40;;;-7.90;56.00;;;;;;4970654;28;46380;-61
2022/12/13 00:29:50;;;;;;;16.80;7.47;;;-7.80;55.30;;;;;;4970013;28;46599;-61
2022/12/13 00:32:16;;;;;;;14.17;7.10;;;-7.80;56.30;;;;;;4972373;28;46597;-60
2022/12/13 00:34:41;;;;;;;15.53;6.47;;;-7.80;56.30;;;;;;4969885;28;45868;-60
2022/12/13 00:37:07;;;;;;;12.37;7.23;;;-7.80;56.40;;;;;;4970980;28;46275;-60
2022/12/13 00:39:32;;;;;;;19.63;8.30;;;-7.80;55.50;;;;;;4969969;28;46731;-60
2022/12/13 00:41:58;;;;;;;13.33;7.07;;;-7.80;55.40;;;;;;4974280;28;46593;-60
2022/12/13 00:44:24;;;;;;;19.17;8.23;;;-7.90;56.50;;;;;;4968272;28;45923;-60
2022/12/13 00:46:52;;;;;;;12.87;7.60;;;-7.80;56.60;;;;;;4970203;28;46025;-60
2022/12/13 00:49:18;;;;;;;15.25;7.18;;;-7.90;56.60;;;;;;4969746;28;46060;-63
2022/12/13 00:51:44;;;;;;;15.00;6.90;;;-7.90;55.70;;;;;;4969377;28;47656;-62
2022/12/13 00:54:10;;;;;;;18.83;9.50;;;-7.90;56.80;;;;;;4969445;28;46811;-60
2022/12/13 00:56:36;;;;;;;19.83;8.50;;;-7.90;56.90;;;;;;4969922;28;46434;-61
2022/12/13 00:59:03;;;;;;;14.98;8.73;;;-7.90;57.00;;;;;;4971054;28;46347;-61
2022/12/13 01:01:31;;;;;;;13.95;7.15;;;-7.90;56.00;;;;;;4969849;28;46422;-62
2022/12/13 01:03:59;;;;;;;12.07;7.07;;;-8.00;57.00;;;;;;4972714;28;46344;-61
2022/12/13 01:06:40;;;;;;;16.70;7.22;;;-8.00;57.10;;;;;;4982498;28;46325;-61
2022/12/13 01:09:16;;;;;;;12.95;7.18;;;-8.00;57.20;;;;;;4970309;28;46445;-61
2022/12/13 01:11:42;;;;;;;10.75;5.03;;;-8.10;56.10;;;;;;4969729;28;46425;-62
2022/12/13 01:14:08;;;;;;;11.27;5.65;;;-8.20;57.30;;;;;;4969630;28;46648;-61
2022/12/13 01:16:33;;;;;;;9.53;4.87;;;-8.30;57.40;;;;;;4973715;28;46376;-60
2022/12/13 01:18:59;;;;;;;15.07;6.97;;;-8.40;57.60;;;;;;4970367;28;46404;-61
2022/12/13 01:21:25;;;;;;;12.97;7.10;;;-8.50;56.70;;;;;;4968810;28;47079;-60
2022/12/13 01:23:50;;;;;;;14.47;6.97;;;-8.50;57.90;;;;;;4971624;28;46407;-62
2022/12/13 01:26:20;;;;;;;15.70;7.20;;;-8.60;57.90;;;;;;4971609;28;46306;-60
2022/12/13 01:28:46;;;;;;;10.98;6.35;;;-8.50;58.00;;;;;;4966557;28;46496;-60
2022/12/13 01:31:16;;;;;;;13.13;6.32;;;-8.50;56.70;;;;;;4969528;28;46812;-61
2022/12/13 01:33:41;;;;;;;14.65;7.07;;;-8.40;57.80;;;;;;4971245;28;46304;-61
2022/12/13 01:36:11;;;;;;;12.40;7.33;;;-8.40;57.60;;;;;;4971612;28;46384;-61
2022/12/13 01:38:37;;;;;;;17.35;6.43;;;-8.50;57.70;;;;;;4969869;28;46463;-62
2022/12/13 01:41:03;;;;;;;13.87;7.33;;;-8.50;56.80;;;;;;4969197;28;47511;-61
2022/12/13 01:43:40;;;;;;;14.80;7.17;;;-8.60;57.80;;;;;;4969777;28;46421;-61
2022/12/13 01:46:07;;;;;;;14.80;6.28;;;-8.50;56.90;;;;;;4967024;28;46310;-61
2022/12/13 01:48:38;;;;;;;13.32;6.60;;;-8.50;57.80;;;;;;4969772;28;46373;-61
2022/12/13 01:51:05;;;;;;;12.70;6.95;;;-8.40;56.70;;;;;;4969112;28;46645;-61
2022/12/13 01:53:35;;;;;;;11.60;6.90;;;-8.40;57.70;;;;;;4971290;28;46438;-61
2022/12/13 01:56:05;;;;;;;16.88;7.10;;;-8.40;57.80;;;;;;4985019;28;46428;-62
2022/12/13 01:58:32;;;;;;;12.70;7.30;;;-8.40;57.90;;;;;;4970166;28;46342;-62
2022/12/13 02:00:59;;;;;;;12.35;6.20;;;-8.40;57.00;;;;;;4972953;28;46388;-61
2022/12/13 02:03:25;;;;;;;13.65;6.38;;;-8.30;58.10;;;;;;4971079;28;46347;-61
2022/12/13 02:06:22;;;;;;;17.40;6.43;;;-8.30;58.10;;;;;;4971922;28;46526;-60
2022/12/13 02:08:48;;;;;;;12.18;6.55;;;-8.30;57.90;;;;;;4975298;28;46424;-60
2022/12/13 02:11:14;;;;;;;13.38;5.80;;;-8.20;57.20;;;;;;4973959;28;46452;-60
2022/12/13 02:13:40;;;;;;;8.45;4.88;;;-8.20;58.30;;;;;;4970949;28;46291;-61
2022/12/13 02:16:11;;;;;;;12.23;6.23;;;-8.20;58.30;;;;;;4975922;28;46219;-61
2022/12/13 02:18:57;;;;;;;13.77;6.32;;;-8.10;59.40;;;;;;4972011;28;46383;-60
2022/12/13 02:21:44;;;;;;;14.60;6.97;;;-8.20;57.40;;;;;;4964209;28;47896;-61
2022/12/13 02:24:23;;;;;;;15.43;6.20;;;-8.20;58.60;;;;;;4970819;28;46712;-61
2022/12/13 02:27:10;;;;;;;15.70;8.00;;;-8.20;58.80;;;;;;4973153;28;46362;-61
2022/12/13 02:30:11;;;;;;;9.55;5.93;;;-8.10;58.30;;;;;;4973641;28;45896;-61
2022/12/13 02:33:06;;;;;;;14.93;7.57;;;-8.10;59.10;;;;;;4971524;28;47697;-61
2022/12/13 02:35:50;;;;;;;16.35;7.65;;;-8.20;59.00;;;;;;4970503;28;46092;-61
2022/12/13 02:38:46;;;;;;;8.23;4.90;;;-8.20;59.40;;;;;;4971126;28;46481;-61
2022/12/13 02:41:38;;;;;;;10.15;5.68;;;-8.20;58.80;;;;;;4973935;28;46262;-61
2022/12/13 02:44:10;;;;;;;15.55;8.20;;;-8.30;60.00;;;;;;4985570;28;46506;-62
2022/12/13 02:46:41;;;;;;;9.25;5.45;;;-8.30;60.10;;;;;;4970659;28;46640;-61
2022/12/13 02:49:08;;;;;;;10.70;6.15;;;-8.30;60.30;;;;;;4971214;28;46551;-62
2022/12/13 02:51:36;;;;;;;16.42;6.53;;;-8.30;60.40;;;;;;4972757;28;46562;-62
2022/12/13 02:54:03;;;;;;;12.57;7.60;;;-8.30;60.70;;;;;;4970675;28;46596;-61
2022/12/13 02:56:30;;;;;;;14.20;6.60;;;-8.30;60.70;;;;;;4967217;28;46064;-61
2022/12/13 02:59:00;;;;;;;12.43;6.97;;;-9.00;60.20;;;;;;4970722;28;46408;-60
2022/12/13 03:01:28;;;;;;;15.38;7.05;;;-8.30;59.80;;;;;;4971186;28;46399;-60
2022/12/13 03:04:00;;;;;;;9.05;5.00;;;-8.20;60.90;;;;;;4969713;28;46388;-61
2022/12/13 03:06:38;;;;;;;11.23;3.17;;;-8.30;61.10;;;;;;4968373;28;46431;-61
2022/12/13 03:09:28;;;;;;;11.57;5.80;;;-8.20;61.30;;;;;;4969648;28;46760;-60
2022/12/13 03:15:27;;;;;;;8.85;4.60;;;-8.20;61.70;;;;;;4966994;28;46160;-61
2022/12/13 03:18:01;;;;;;;14.00;6.90;;;-8.20;61.90;;;;;;4974254;28;46609;-61
2022/12/13 03:20:28;;;;;;;10.73;6.05;;;-8.20;61.20;;;;;;4969461;28;46523;-60
2022/12/13 03:22:55;;;;;;;10.35;5.45;;;-8.20;62.30;;;;;;4971260;28;46635;-60
2022/12/13 03:25:23;;;;;;;12.30;5.20;;;-8.20;62.30;;;;;;4973692;28;47641;-60
2022/12/13 03:27:49;;;;;;;13.32;7.18;;;-8.20;62.20;;;;;;4973106;28;46518;-60
2022/12/13 03:30:14;;;;;;;10.20;4.43;;;-8.20;61.20;;;;;;4973650;28;46377;-59
2022/12/13 03:32:40;;;;;;;11.53;6.90;;;-8.20;62.30;;;;;;4971488;28;45894;-60
2022/12/13 03:35:06;;;;;;;11.27;5.73;;;-8.20;62.30;;;;;;4969425;28;47471;-61
2022/12/13 03:37:32;;;;;;;12.60;7.18;;;-8.20;62.30;;;;;;4967723;28;46149;-60
2022/12/13 03:39:58;;;;;;;11.63;6.27;;;-8.30;61.10;;;;;;4970115;28;46637;-60
2022/12/13 03:42:23;;;;;;;11.23;6.38;;;-8.30;62.20;;;;;;4971280;28;46513;-62
2022/12/13 03:44:49;;;;;;;12.73;5.97;;;-8.30;62.20;;;;;;4970152;28;46428;-60
2022/12/13 03:47:16;;;;;;;19.73;6.90;;;-8.30;62.20;;;;;;4972978;28;46420;-61
2022/12/13 03:49:41;;;;;;;5.25;3.70;;;-8.30;61.10;;;;;;4971163;28;46475;-61
2022/12/13 03:52:07;;;;;;;12.90;6.93;;;-8.30;62.20;;;;;;4984495;28;46495;-62
2022/12/13 03:54:33;;;;;;;9.90;6.00;;;-8.30;62.20;;;;;;4967981;28;46521;-62
2022/12/13 03:56:58;;;;;;;12.13;6.60;;;-8.30;62.20;;;;;;4985948;28;46340;-61
2022/12/13 03:59:24;;;;;;;13.03;6.80;;;-8.40;61.10;;;;;;4969890;28;46459;-60
2022/12/13 04:01:50;;;;;;;13.53;7.43;;;-8.40;62.10;;;;;;4969597;28;46827;-60
2022/12/13 04:04:15;;;;;;;13.87;6.40;;;-8.50;61.00;;;;;;4972174;28;46400;-62
2022/12/13 04:06:41;;;;;;;13.77;7.63;;;-8.50;62.10;;;;;;4970154;28;46421;-60
2022/12/13 04:09:07;;;;;;;14.00;7.60;;;-8.50;62.10;;;;;;4973150;28;46643;-61
2022/12/13 04:14:16;;;;;;;17.98;6.72;;;-8.50;62.10;;;;;;4967856;28;46397;-62
2022/12/13 04:16:42;;;;;;;12.93;7.57;;;-8.60;61.90;;;;;;4970073;28;46380;-60
2022/12/13 04:19:08;;;;;;;10.73;6.20;;;-8.60;61.90;;;;;;4963973;28;46412;-61
2022/12/13 04:21:34;;;;;;;11.73;7.00;;;-8.60;60.90;;;;;;4969160;28;46444;-61
2022/12/13 04:23:59;;;;;;;12.25;6.97;;;-8.50;62.10;;;;;;4967506;28;46161;-63
2022/12/13 04:26:25;;;;;;;11.30;5.90;;;-8.50;62.00;;;;;;4967120;28;46756;-62
2022/12/13 04:28:52;;;;;;;29.67;7.20;;;-8.50;62.00;;;;;;4966678;28;46403;-62
2022/12/13 04:31:18;;;;;;;14.13;6.55;;;-8.60;60.90;;;;;;4968120;28;46550;-63
2022/12/13 04:33:44;;;;;;;13.40;7.27;;;-8.60;62.00;;;;;;4969276;28;46456;-61
2022/12/13 04:36:10;;;;;;;12.57;7.07;;;-8.60;61.90;;;;;;4967624;28;46443;-61
2022/12/13 04:38:37;;;;;;;14.10;6.50;;;-8.70;61.80;;;;;;4968500;28;46092;-61
2022/12/13 04:41:05;;;;;;;15.73;7.20;;;-8.70;60.80;;;;;;4970516;28;46186;-61
2022/12/13 04:43:31;;;;;;;15.00;7.72;;;-8.70;61.90;;;;;;4966198;28;46473;-61
2022/12/13 04:45:57;;;;;;;13.90;7.67;;;-9.20;61.40;;;;;;4969386;28;46457;-60
2022/12/13 04:48:23;;;;;;;13.52;7.07;;;-8.80;61.70;;;;;;4968912;28;46271;-60
2022/12/13 04:50:48;;;;;;;13.60;6.70;;;-8.80;60.70;;;;;;4967734;28;46440;-61
2022/12/13 04:53:15;;;;;;;14.47;6.30;;;-8.80;61.80;;;;;;4968907;28;46497;-62
2022/12/13 04:55:41;;;;;;;16.52;7.20;;;-8.80;61.80;;;;;;4965773;28;46682;-61
2022/12/13 04:58:06;;;;;;;11.95;7.53;;;-8.80;61.70;;;;;;4968569;28;46430;-60
2022/12/13 05:00:32;;;;;;;21.60;6.57;;;-8.90;60.60;;;;;;4968565;28;46343;-60
2022/12/13 05:02:57;;;;;;;9.50;5.53;;;-8.90;61.70;;;;;;4967566;28;47133;-61
2022/12/13 05:05:23;;;;;;;17.53;7.87;;;-8.80;61.80;;;;;;4969217;28;45884;-61
2022/12/13 05:07:49;;;;;;;10.00;4.97;;;-8.80;61.70;;;;;;4969798;28;46420;-60
2022/12/13 05:10:15;;;;;;;18.40;7.47;;;-8.80;60.70;;;;;;4970101;28;46611;-61
2022/12/13 05:12:40;;;;;;;9.80;5.30;;;-8.80;61.80;;;;;;4970639;28;47192;-61
2022/12/13 05:15:06;;;;;;;14.57;6.80;;;-8.80;61.80;;;;;;4971319;28;46454;-62
2022/12/13 05:17:32;;;;;;;10.70;6.40;;;-8.80;61.70;;;;;;4969779;28;46404;-61
2022/12/13 05:19:58;;;;;;;14.35;7.00;;;-8.80;60.70;;;;;;4972648;28;46538;-62
2022/12/13 05:22:24;;;;;;;12.37;6.87;;;-8.70;61.90;;;;;;4971682;28;47680;-62
2022/12/13 05:24:49;;;;;;;19.17;7.33;;;-8.70;61.90;;;;;;4968626;28;46367;-63
2022/12/13 05:27:15;;;;;;;10.60;6.40;;;-8.70;61.80;;;;;;4969103;28;46407;-63
2022/12/13 05:29:40;;;;;;;14.53;7.50;;;-8.80;60.70;;;;;;4970835;28;45898;-62
2022/12/13 05:32:06;;;;;;;20.30;8.33;;;-8.80;61.80;;;;;;4973350;28;47703;-61
2022/12/13 05:34:31;;;;;;;26.43;10.83;;;-8.80;61.80;;;;;;4972986;28;46273;-62
2022/12/13 05:36:57;;;;;;;20.23;9.43;;;-8.80;61.70;;;;;;4989248;28;46472;-61
2022/12/13 05:39:23;;;;;;;23.80;8.80;;;-8.90;61.70;;;;;;4970449;28;46386;-61
2022/12/13 05:41:48;;;;;;;18.17;8.57;;;-9.00;60.50;;;;;;4971744;28;47769;-63
2022/12/13 05:44:14;;;;;;;14.53;7.47;;;-8.90;62.90;;;;;;4969952;28;45875;-62
2022/12/13 05:46:40;;;;;;;16.90;7.47;;;-8.90;61.70;;;;;;4972857;28;45844;-62
2022/12/13 05:49:06;;;;;;;12.65;7.25;;;-8.90;61.70;;;;;;4971449;28;46681;-62
2022/12/13 05:51:31;;;;;;;14.97;7.87;;;-8.90;60.60;;;;;;4971832;28;46525;-61
2022/12/13 05:53:57;;;;;;;15.60;8.03;;;-8.90;61.70;;;;;;4971043;28;46367;-61
2022/12/13 05:56:23;;;;;;;15.57;8.10;;;-8.90;61.70;;;;;;4969309;28;46487;-61
2022/12/13 05:58:48;;;;;;;21.17;7.67;;;-9.00;61.60;;;;;;4972755;28;46549;-61
2022/12/13 06:01:15;;;;;;;18.53;9.10;;;-9.00;60.50;;;;;;4969810;28;48894;-60
2022/12/13 06:03:41;;;;;;;16.20;7.90;;;-9.00;61.60;;;;;;4973337;28;46515;-61
2022/12/13 06:06:09;;;;;;;20.33;8.70;;;-9.00;61.60;;;;;;4971452;28;46444;-62
2022/12/13 06:08:35;;;;;;;15.02;7.55;;;-9.00;61.60;;;;;;4972602;28;46548;-61
2022/12/13 06:11:02;;;;;;;14.85;8.52;;;-9.00;60.50;;;;;;4972330;28;46620;-62
2022/12/13 06:13:27;;;;;;;14.27;8.30;;;-9.00;61.60;;;;;;4972229;28;46581;-61
2022/12/13 06:15:53;;;;;;;20.60;9.20;;;-9.00;61.60;;;;;;4971465;28;45890;-62
2022/12/13 06:18:19;;;;;;;16.57;7.97;;;-9.10;61.50;;;;;;4970672;28;46830;-62
2022/12/13 06:20:54;;;;;;;14.40;7.57;;;-9.10;60.50;;;;;;4971187;28;46469;-61
2022/12/13 06:23:19;;;;;;;28.25;9.00;;;-9.20;61.40;;;;;;4972608;28;46395;-62
2022/12/13 06:25:45;;;;;;;15.33;8.03;;;-9.20;61.50;;;;;;4969597;28;45899;-61
2022/12/13 06:28:11;;;;;;;13.43;7.40;;;-9.20;61.40;;;;;;4971936;28;46389;-61
2022/12/13 06:30:36;;;;;;;15.97;8.03;;;-9.20;60.40;;;;;;4970243;28;46568;-62
2022/12/13 06:33:02;;;;;;;12.70;6.43;;;-9.20;61.40;;;;;;4971155;28;46360;-61
2022/12/13 06:35:27;;;;;;;14.70;7.27;;;-9.20;61.40;;;;;;4971488;28;45982;-61
2022/12/13 06:37:53;;;;;;;17.90;7.70;;;-9.20;61.40;;;;;;4970417;28;46369;-63
2022/12/13 06:40:19;;;;;;;11.87;7.00;;;-9.20;60.40;;;;;;4973509;28;47331;-62
2022/12/13 06:42:44;;;;;;;10.93;6.53;;;-9.20;61.40;;;;;;4970568;28;46408;-62
2022/12/13 06:45:10;;;;;;;11.57;6.53;;;-9.20;61.40;;;;;;4968013;28;46436;-61
2022/12/13 06:47:36;;;;;;;15.07;6.97;;;-9.20;61.40;;;;;;4973001;28;46379;-62
2022/12/13 06:50:01;;;;;;;21.10;8.10;;;-9.20;60.40;;;;;;4972759;28;46676;-61
2022/12/13 06:52:27;;;;;;;16.00;8.00;;;-9.20;61.40;;;;;;4973457;28;46693;-62
2022/12/13 06:54:53;;;;;;;13.27;6.50;;;-9.20;61.40;;;;;;4972104;28;45934;-61
2022/12/13 06:57:18;;;;;;;13.00;6.20;;;-9.30;61.40;;;;;;4971317;28;46527;-61
2022/12/13 06:59:44;;;;;;;15.43;6.83;;;-9.20;60.40;;;;;;4972342;28;46360;-62
2022/12/13 07:02:10;;;;;;;19.37;7.90;;;-9.20;61.40;;;;;;4969244;28;46378;-62
2022/12/13 07:04:35;;;;;;;12.63;7.00;;;-9.20;61.40;;;;;;4988462;28;46504;-62
2022/12/13 07:07:01;;;;;;;14.17;7.00;;;-9.10;61.50;;;;;;4973077;28;46540;-61
2022/12/13 07:09:28;;;;;;;13.33;6.37;;;-9.10;60.50;;;;;;4975543;28;46555;-63
2022/12/13 07:11:54;;;;;;;14.60;7.22;;;-9.10;61.50;;;;;;4973621;28;46387;-61
2022/12/13 07:14:19;;;;;;;14.17;7.13;;;-9.10;61.50;;;;;;4966736;28;46309;-62
2022/12/13 07:16:45;;;;;;;12.30;7.17;;;-9.10;61.60;;;;;;4970346;28;46432;-61
2022/12/13 07:19:10;;;;;;;12.63;6.63;;;-9.10;61.50;;;;;;4971040;28;47369;-61
2022/12/13 07:21:37;;;;;;;11.47;5.30;;;-9.00;60.50;;;;;;4973787;28;46420;-60
2022/12/13 07:24:03;;;;;;;14.60;7.50;;;-9.00;61.60;;;;;;4969812;28;46419;-60
2022/12/13 07:26:29;;;;;;;13.38;7.00;;;-9.00;61.60;;;;;;4972864;28;46485;-61
2022/12/13 07:28:55;;;;;;;11.30;5.90;;;-8.80;61.70;;;;;;4971408;28;46582;-61
2022/12/13 07:31:21;;;;;;;9.53;6.27;;;-9.00;60.50;;;;;;4970827;28;46408;-61
2022/12/13 07:33:47;;;;;;;9.95;5.43;;;-8.90;61.70;;;;;;4977227;28;46363;-61
2022/12/13 07:36:18;;;;;;;14.70;7.85;;;-8.90;61.70;;;;;;4973107;28;46576;-61
2022/12/13 07:38:49;;;;;;;13.10;5.95;;;-8.90;61.70;;;;;;4968990;28;47572;-61
2022/12/13 07:41:14;;;;;;;10.48;5.45;;;-8.90;60.60;;;;;;4970693;28;46670;-61
2022/12/13 07:43:40;;;;;;;7.37;4.17;;;-8.90;61.70;;;;;;4971383;28;46752;-60
2022/12/13 07:46:07;;;;;;;14.77;7.80;;;-8.80;61.70;;;;;;4973360;28;46495;-60
2022/12/13 07:48:32;;;;;;;15.25;7.60;;;-8.70;61.80;;;;;;4970447;28;46817;-61
2022/12/13 07:51:03;;;;;;;15.20;7.83;;;-8.70;60.80;;;;;;4971783;28;46421;-63
2022/12/13 07:53:29;;;;;;;18.95;9.45;;;-8.70;61.90;;;;;;4970962;28;46416;-61
2022/12/13 07:55:55;;;;;;;20.33;8.33;;;-8.70;60.80;;;;;;4983015;28;46584;-60
2022/12/13 07:58:21;;;;;;;20.73;8.10;;;-8.80;61.80;;;;;;4970165;28;48644;-62
2022/12/13 08:00:47;;;;;;;14.70;7.35;;;-8.70;60.80;;;;;;4970358;28;46473;-60
2022/12/13 08:03:14;;;;;;;14.20;7.10;;;-8.60;62.00;;;;;;4966949;28;46492;-61
2022/12/13 08:05:40;;;;;;;17.60;7.78;;;-8.70;61.80;;;;;;4968197;28;46668;-62
2022/12/13 08:08:08;;;;;;;14.38;8.02;;;-8.60;61.90;;;;;;4967303;28;47493;-62
2022/12/13 08:10:34;;;;;;;12.68;8.00;;;-8.60;60.90;;;;;;4969379;28;46371;-62
2022/12/13 08:13:01;;;;;;;14.07;6.93;;;-8.60;62.00;;;;;;4970392;28;46560;-61
2022/12/13 08:15:27;;;;;;;16.73;6.97;;;-8.50;62.10;;;;;;4970631;28;46009;-60
2022/12/13 08:17:55;;;;;;;20.90;7.87;;;-8.40;60.90;;;;;;4970861;28;46474;-61
2022/12/13 08:20:20;;;;;;;16.30;6.72;;;-8.30;60.50;;;;;;4967378;28;46557;-61
2022/12/13 08:22:53;;;;;;;17.93;8.13;;;-8.30;61.50;;;;;;4970913;28;46384;-62
2022/12/13 08:25:19;;;;;;;16.08;8.23;;;-8.20;61.10;;;;;;4970756;28;46297;-61
2022/12/13 08:27:44;;;;;;;15.80;7.80;;;-8.10;61.10;;;;;;4971990;28;46353;-61
2022/12/13 08:30:10;;;;;;;17.73;8.00;;;-8.10;60.10;;;;;;4983051;28;46407;-61
2022/12/13 08:32:36;;;;;;;15.53;8.57;;;-8.00;61.30;;;;;;4970724;28;46386;-61
2022/12/13 08:35:01;;;;;;;18.90;8.90;;;-7.90;61.10;;;;;;4965946;28;46543;-63
2022/12/13 08:37:27;;;;;;;16.93;7.97;;;-7.80;60.90;;;;;;4970398;28;46528;-61
2022/12/13 08:39:52;;;;;;;15.70;8.23;;;-7.60;59.90;;;;;;4967987;28;46409;-61
2022/12/13 08:42:18;;;;;;;16.23;8.10;;;-7.60;60.90;;;;;;4972032;28;46384;-61
2022/12/13 08:44:45;;;;;;;15.60;8.27;;;-7.60;60.90;;;;;;4970482;28;46503;-61
2022/12/13 08:47:12;;;;;;;38.05;17.25;;;-7.50;60.90;;;;;;4969980;28;47184;-63
2022/12/13 08:49:37;;;;;;;33.60;12.93;;;-7.30;59.70;;;;;;4969961;28;46108;-62
2022/12/13 08:52:03;;;;;;;45.87;14.63;;;-7.30;60.50;;;;;;4969380;28;46450;-63
2022/12/13 08:54:32;;;;;;;42.53;16.33;;;-7.10;60.60;;;;;;4969142;28;46507;-63
2022/12/13 08:56:57;;;;;;;26.63;11.68;;;-7.00;60.50;;;;;;4970077;28;46452;-64
2022/12/13 08:59:24;;;;;;;19.90;8.93;;;-6.90;59.50;;;;;;4970003;28;46384;-63
2022/12/13 09:01:50;;;;;;;43.63;15.48;;;-6.80;59.40;;;;;;4968209;28;46459;-63
2022/12/13 09:04:16;;;;;;;40.30;16.67;;;-6.70;60.20;;;;;;4972106;28;46946;-63
2022/12/13 09:06:42;;;;;;;25.77;11.37;;;-6.70;60.20;;;;;;4975048;28;47031;-63
2022/12/13 09:09:08;;;;;;;50.90;18.95;;;-6.60;60.30;;;;;;4976367;28;46488;-64
2022/12/13 09:11:33;;;;;;;55.77;22.30;;;-6.50;59.20;;;;;;4976956;28;45923;-62
2022/12/13 09:13:59;;;;;;;26.90;9.20;;;-6.40;60.10;;;;;;4976049;28;46524;-62
2022/12/13 09:16:25;;;;;;;30.80;12.10;;;-6.40;60.10;;;;;;4976936;28;46605;-64
2022/12/13 09:18:54;;;;;;;33.63;13.43;;;-6.40;60.40;;;;;;4976105;28;46329;-64
2022/12/13 09:21:19;;;;;;;26.50;9.68;;;-6.30;59.50;;;;;;4980052;28;46402;-63
2022/12/13 09:23:45;;;;;;;18.83;8.50;;;-6.30;60.50;;;;;;4975017;28;46439;-63
2022/12/13 09:26:13;;;;;;;29.43;12.33;;;-6.30;60.50;;;;;;4978671;28;47143;-63
2022/12/13 09:28:39;;;;;;;42.72;14.32;;;-6.30;60.60;;;;;;4990946;28;46382;-62
2022/12/13 09:31:10;;;;;;;42.13;15.73;;;-6.30;59.70;;;;;;4974697;28;46551;-62
2022/12/13 09:33:36;;;;;;;50.85;18.27;;;-6.20;60.90;;;;;;4987831;28;46455;-63
2022/12/13 09:36:04;;;;;;;43.30;17.20;;;-6.20;61.00;;;;;;4975365;28;47677;-64
2022/12/13 09:38:31;;;;;;;41.03;12.10;;;-6.20;61.10;;;;;;4975438;28;46550;-63
2022/12/13 09:40:58;;;;;;;39.72;14.73;;;-6.20;60.20;;;;;;4975582;28;46511;-64
2022/12/13 09:43:30;;;;;;;46.20;15.48;;;-6.10;61.30;;;;;;4974877;28;46415;-64
2022/12/13 09:45:57;;;;;;;34.25;12.85;;;-6.10;61.30;;;;;;4972972;28;46649;-64
2022/12/13 09:48:23;;;;;;;27.10;11.63;;;-6.10;61.10;;;;;;4973061;28;46297;-63
2022/12/13 09:50:49;;;;;;;18.15;7.70;;;-6.10;60.30;;;;;;4976376;28;46433;-63
2022/12/13 09:53:18;;;;;;;12.75;7.35;;;-6.10;61.30;;;;;;4977511;28;46617;-63
2022/12/13 09:55:47;;;;;;;28.25;9.13;;;-6.00;61.40;;;;;;4973251;28;47164;-63
2022/12/13 09:58:33;;;;;;;19.65;7.85;;;-6.00;61.20;;;;;;4989399;28;46732;-63
2022/12/13 10:00:59;;;;;;;17.92;7.35;;;-5.90;60.10;;;;;;4975101;28;46486;-64
2022/12/13 10:03:25;;;;;;;22.90;9.47;;;-5.90;61.10;;;;;;4974571;28;46415;-62
2022/12/13 10:05:59;;;;;;;6.80;4.18;;;-5.80;60.90;;;;;;4975407;28;46394;-62
2022/12/13 10:08:37;;;;;;;12.27;6.63;;;-5.90;60.90;;;;;;4972671;28;46503;-63
2022/12/13 10:11:03;;;;;;;15.10;7.95;;;-5.80;59.90;;;;;;4975002;28;46460;-63
2022/12/13 10:13:47;;;;;;;16.98;7.07;;;-5.80;61.00;;;;;;4974576;28;46033;-62
2022/12/13 10:16:33;;;;;;;13.48;7.47;;;-5.80;60.80;;;;;;4970668;28;47507;-63
2022/12/13 10:19:01;;;;;;;12.95;7.30;;;-5.70;61.00;;;;;;4969164;28;46028;-62
2022/12/13 10:21:38;;;;;;;25.85;8.05;;;-5.60;59.80;;;;;;4973800;28;45808;-63
2022/12/13 10:24:26;;;;;;;16.70;7.95;;;-5.50;60.80;;;;;;4970777;28;46316;-62
2022/12/13 10:27:08;;;;;;;11.80;5.93;;;-5.50;60.60;;;;;;4970888;28;46431;-62
2022/12/13 10:29:54;;;;;;;18.50;8.30;;;-5.30;59.60;;;;;;4971927;28;46577;-63
2022/12/13 10:32:20;;;;;;;19.67;9.07;;;-5.30;60.50;;;;;;4971084;28;46453;-63
2022/12/13 10:34:46;;;;;;;15.27;8.55;;;-5.20;60.40;;;;;;4970246;28;46596;-63
2022/12/13 10:37:32;;;;;;;15.82;7.90;;;-5.10;60.10;;;;;;4973324;28;47395;-63
2022/12/13 10:39:58;;;;;;;18.05;7.47;;;-4.90;59.30;;;;;;4970148;28;46592;-63
2022/12/13 10:42:23;;;;;;;15.90;7.65;;;-4.90;60.20;;;;;;4975536;28;46468;-65
2022/12/13 10:45:09;;;;;;;18.53;8.23;;;-4.80;59.80;;;;;;4973964;28;46464;-63
2022/12/13 10:47:35;;;;;;;19.58;8.48;;;-4.80;59.50;;;;;;4973914;28;46430;-63
2022/12/13 10:50:01;;;;;;;20.45;9.73;;;-4.70;58.40;;;;;;4968718;28;46387;-63
2022/12/13 10:52:38;;;;;;;20.90;8.63;;;-4.70;59.40;;;;;;4973565;28;46427;-64
2022/12/13 10:55:10;;;;;;;14.48;7.22;;;-4.60;59.30;;;;;;4971030;28;46635;-64
2022/12/13 10:57:36;;;;;;;16.33;7.93;;;-4.50;58.90;;;;;;4973195;28;46468;-64
2022/12/13 11:00:02;;;;;;;18.57;9.80;;;-4.50;58.00;;;;;;4966966;28;46391;-63
2022/12/13 11:02:37;;;;;;;15.85;8.30;;;-4.40;59.20;;;;;;4973906;28;46755;-62
2022/12/13 11:05:26;;;;;;;22.38;10.00;;;-4.30;59.20;;;;;;4971666;28;46314;-63
2022/12/13 11:07:54;;;;;;;17.95;8.55;;;-4.10;58.80;;;;;;4971041;28;47352;-63
2022/12/13 11:10:20;;;;;;;15.00;7.15;;;-4.00;56.90;;;;;;4969308;28;46712;-64
2022/12/13 11:12:46;;;;;;;41.15;17.70;;;-4.00;58.00;;;;;;4971527;28;45760;-64
2022/12/13 11:15:18;;;;;;;23.42;10.10;;;-3.90;57.70;;;;;;4970284;28;46626;-62
2022/12/13 11:18:00;;;;;;;15.55;7.15;;;-3.70;58.00;;;;;;4970517;28;49009;-63
2022/12/13 11:21:00;;;;;;;23.63;10.20;;;-3.70;56.20;;;;;;4974327;28;46762;-64
2022/12/13 11:23:34;;;;;;;15.50;7.97;;;-3.60;57.40;;;;;;4971374;28;46341;-63
2022/12/13 11:26:06;;;;;;;19.92;8.65;;;-3.40;57.20;;;;;;4986553;28;46320;-63
2022/12/13 11:28:57;;;;;;;17.80;8.95;;;-3.40;57.10;;;;;;4972227;28;47419;-63
2022/12/13 11:31:52;;;;;;;17.85;8.40;;;-3.20;55.80;;;;;;4971765;28;46531;-63
2022/12/13 11:34:34;;;;;;;20.25;9.25;;;-3.20;56.50;;;;;;4967199;28;46405;-64
2022/12/13 11:37:30;;;;;;;14.35;7.53;;;-3.20;56.70;;;;;;4968566;28;46197;-63
2022/12/13 11:40:14;;;;;;;22.38;8.70;;;-3.10;56.50;;;;;;4970634;28;46447;-63
2022/12/13 11:42:48;;;;;;;16.20;8.65;;;-3.00;56.50;;;;;;4975401;28;46572;-63
2022/12/13 11:45:23;;;;;;;13.18;7.80;;;-3.00;56.20;;;;;;4971079;28;46428;-62
2022/12/13 11:48:09;;;;;;;16.83;9.18;;;-2.90;55.50;;;;;;4970376;28;46452;-62
2022/12/13 11:50:37;;;;;;;15.48;9.32;;;-2.90;54.30;;;;;;4969587;28;47364;-63
2022/12/13 11:53:27;;;;;;;12.95;7.30;;;-2.80;55.70;;;;;;4971197;28;46360;-63
2022/12/13 11:56:01;;;;;;;15.10;7.60;;;-2.90;55.70;;;;;;4970352;28;46476;-62
2022/12/13 11:58:36;;;;;;;14.70;7.35;;;-2.90;56.00;;;;;;4972184;28;46661;-64
2022/12/13 12:01:08;;;;;;;15.13;7.47;;;-2.90;54.80;;;;;;4972706;28;46806;-62
2022/12/13 12:03:44;;;;;;;14.98;8.20;;;-3.00;56.10;;;;;;4968806;28;46581;-63
2022/12/13 12:06:27;;;;;;;16.15;9.02;;;-3.10;55.80;;;;;;4971309;28;46487;-63
2022/12/13 12:08:59;;;;;;;13.68;7.15;;;-3.00;55.60;;;;;;4971809;28;46388;-65
2022/12/13 12:11:50;;;;;;;14.30;6.97;;;-2.90;54.70;;;;;;4970352;28;46348;-64
2022/12/13 12:14:48;;;;;;;22.92;10.15;;;-2.90;55.50;;;;;;4967663;28;46695;-63
2022/12/13 12:17:18;;;;;;;10.57;5.72;;;-2.80;55.40;;;;;;4935689;28;46560;-63
2022/12/13 12:19:48;;;;;;;16.13;7.95;;;-1.10;56.10;;;;;;4970792;28;46405;-63
2022/12/13 12:22:59;;;;;;;16.75;8.27;;;-2.80;55.60;;;;;;4970262;28;47733;-63
2022/12/13 12:26:16;;;;;;;15.98;8.30;;;-3.00;55.70;;;;;;4949251;28;46749;-64
2022/12/13 12:29:22;;;;;;;14.38;7.40;;;-3.00;55.10;;;;;;4970015;28;46494;-62
2022/12/13 12:31:53;;;;;;;15.55;7.95;;;-3.00;54.10;;;;;;4967274;28;47266;-63
2022/12/13 12:34:38;;;;;;;20.08;8.82;;;-3.00;55.20;;;;;;4969624;28;46425;-64
2022/12/13 12:37:22;;;;;;;17.13;8.95;;;-3.00;55.00;;;;;;4967032;28;46667;-64
2022/12/13 12:40:09;;;;;;;11.18;7.25;;;-3.20;55.50;;;;;;4967912;28;46451;-63
2022/12/13 12:42:34;;;;;;;12.45;6.30;;;-3.30;55.90;;;;;;4985332;28;46446;-62
2022/12/13 12:45:34;;;;;;;19.10;8.90;;;-3.50;55.80;;;;;;4970176;28;47438;-62
2022/12/13 12:48:24;;;;;;;18.48;8.18;;;-3.50;56.10;;;;;;4969110;28;46400;-62
2022/12/13 12:50:59;;;;;;;17.50;8.98;;;-3.60;56.00;;;;;;4967196;28;46440;-62
2022/12/13 12:53:36;;;;;;;17.85;8.75;;;-3.50;56.00;;;;;;4970658;28;46438;-62
2022/12/13 12:56:23;;;;;;;12.75;6.40;;;-3.40;55.90;;;;;;4968155;28;46538;-62